createdAt,value
2022-09-23T00:02:02.805Z,100962.97
2022-09-23T00:04:30.577Z,100961.28
2022-09-23T00:06:58.373Z,100959.56
2022-09-23T00:09:26.146Z,100953.25
2022-09-23T00:11:54.028Z,100956.19
2022-09-23T00:14:21.771Z,100957.19
2022-09-23T00:16:49.676Z,100949.00
2022-09-23T00:19:17.573Z,100947.31
2022-09-23T00:21:45.294Z,100952.78
2022-09-23T00:24:13.109Z,100948.31
2022-09-23T00:26:40.858Z,100950.16
2022-09-23T00:29:08.637Z,100946.75
2022-09-23T00:31:36.752Z,100945.91
2022-09-23T00:34:04.575Z,100947.94
2022-09-23T00:36:33.266Z,100943.38
2022-09-23T00:39:02.643Z,100943.38
2022-09-23T00:41:31.827Z,100938.09
2022-09-23T00:43:59.551Z,100945.41
2022-09-23T00:46:27.340Z,100939.13
2022-09-23T00:48:55.122Z,100935.53
2022-09-23T00:51:23.011Z,100925.66
2022-09-23T00:53:50.750Z,100931.09
2022-09-23T00:56:18.684Z,100931.97
2022-09-23T00:58:46.381Z,100930.25
2022-09-23T01:01:15.001Z,100928.53
2022-09-23T01:03:43.008Z,100928.53
2022-09-23T01:06:10.727Z,100931.28
2022-09-23T01:08:38.919Z,100925.81
2022-09-23T01:11:06.886Z,100925.16
2022-09-23T01:13:34.762Z,100921.56
2022-09-23T01:16:02.483Z,100920.72
2022-09-23T01:18:30.288Z,100916.31
2022-09-23T01:20:59.493Z,100914.63
2022-09-23T01:23:27.266Z,100905.75
2022-09-23T01:25:54.979Z,100906.59
2022-09-23T01:28:23.833Z,100915.81
2022-09-23T01:30:51.576Z,100907.81
2022-09-23T01:33:19.316Z,100904.03
2022-09-23T01:35:47.786Z,100902.34
2022-09-23T01:38:15.503Z,100901.50
2022-09-23T01:40:43.540Z,100897.94
2022-09-23T01:43:11.322Z,100897.94
2022-09-23T01:45:39.017Z,100904.38
2022-09-23T01:48:10.425Z,100898.09
2022-09-23T01:50:55.774Z,100895.38
2022-09-23T01:53:23.524Z,100892.81
2022-09-23T01:55:51.698Z,100882.09
2022-09-23T01:58:19.495Z,100880.22
2022-09-23T02:00:48.161Z,100875.63
2022-09-23T02:03:15.880Z,100872.06
2022-09-23T02:05:43.601Z,100869.34
2022-09-23T02:08:11.315Z,100865.94
2022-09-23T02:10:42.065Z,100862.34
2022-09-23T02:13:09.767Z,100869.69
2022-09-23T02:15:37.440Z,100864.41
2022-09-23T02:18:05.262Z,100862.50
2022-09-23T02:20:32.981Z,100860.66
2022-09-23T02:23:01.690Z,100859.78
2022-09-23T02:25:29.399Z,100858.09
2022-09-23T02:27:57.315Z,100859.97
2022-09-23T02:30:27.230Z,100861.66
2022-09-23T02:32:55.186Z,100860.13
2022-09-23T02:35:23.505Z,100853.69
2022-09-23T02:37:52.623Z,100853.00
2022-09-23T02:40:23.666Z,100846.53
2022-09-23T02:42:51.531Z,100853.84
2022-09-23T02:45:19.269Z,100851.28
2022-09-23T02:47:46.958Z,100838.72
2022-09-23T02:50:14.660Z,100846.03
2022-09-23T02:52:43.020Z,100847.91
2022-09-23T02:55:11.131Z,100841.59
2022-09-23T02:57:38.850Z,100841.78
2022-09-23T03:00:06.603Z,100845.50
2022-09-23T03:02:34.513Z,100842.63
2022-09-23T03:05:03.860Z,100843.66
2022-09-23T03:07:33.270Z,100840.06
2022-09-23T03:10:00.923Z,100834.63
2022-09-23T03:12:34.431Z,100835.66
2022-09-23T03:15:02.200Z,100830.19
2022-09-23T03:17:29.863Z,100832.94
2022-09-23T03:19:57.525Z,100834.81
2022-09-23T03:22:25.300Z,100832.25
2022-09-23T03:24:54.138Z,100825.94
2022-09-23T03:27:22.050Z,100821.34
2022-09-23T03:29:49.750Z,100822.38
2022-09-23T03:32:17.464Z,100823.22
2022-09-23T03:34:45.204Z,100825.09
2022-09-23T03:37:12.977Z,100825.25
2022-09-23T03:39:41.683Z,100814.38
2022-09-23T03:42:16.886Z,100815.25
2022-09-23T03:44:45.499Z,100817.97
2022-09-23T03:47:14.552Z,100813.53
2022-09-23T03:49:42.228Z,100809.13
2022-09-23T03:52:10.000Z,100809.97
2022-09-23T03:54:37.801Z,100804.53
2022-09-23T03:57:05.475Z,100802.84
2022-09-23T03:59:33.212Z,100800.97
2022-09-23T04:02:01.863Z,100800.97
2022-09-23T04:04:29.648Z,100804.69
2022-09-23T04:06:57.317Z,100800.44
2022-09-23T04:09:25.064Z,100792.09
2022-09-23T04:11:52.743Z,100792.78
2022-09-23T04:14:20.466Z,100789.88
2022-09-23T04:16:48.215Z,100779.84
2022-09-23T04:19:15.940Z,100780.69
2022-09-23T04:21:43.648Z,100773.53
2022-09-23T04:24:11.363Z,100781.53
2022-09-23T04:26:39.112Z,100776.09
2022-09-23T04:29:07.259Z,100772.34
2022-09-23T04:31:35.109Z,100776.59
2022-09-23T04:34:02.896Z,100776.78
2022-09-23T04:36:31.243Z,100771.97
2022-09-23T04:38:59.161Z,100773.88
2022-09-23T04:41:26.976Z,100764.84
2022-09-23T04:43:54.731Z,100764.00
2022-09-23T04:46:22.462Z,100761.97
2022-09-23T04:48:50.263Z,100763.81
2022-09-23T04:51:17.966Z,100776.59
2022-09-23T04:53:45.657Z,100760.59
2022-09-23T04:56:13.333Z,100763.53
2022-09-23T04:58:41.075Z,100772.69
2022-09-23T05:01:08.803Z,100763.53
2022-09-23T05:03:36.546Z,100770.66
2022-09-23T05:06:04.268Z,100767.25
2022-09-23T05:08:31.935Z,100764.16
2022-09-23T05:10:59.669Z,100767.25
2022-09-23T05:13:27.313Z,100767.25
2022-09-23T05:15:55.001Z,100763.53
2022-09-23T05:18:22.712Z,100763.53
2022-09-23T05:20:50.382Z,100760.59
2022-09-23T05:23:18.074Z,100775.06
2022-09-23T05:25:46.296Z,100757.88
2022-09-23T05:28:15.031Z,100767.78
2022-09-23T05:30:42.725Z,100774.22
2022-09-23T05:33:10.509Z,100765.22
2022-09-23T05:35:38.196Z,100766.91
2022-09-23T05:38:06.076Z,100761.44
2022-09-23T05:40:33.816Z,100760.44
2022-09-23T05:43:01.592Z,100770.66
2022-09-23T05:45:29.721Z,100767.78
2022-09-23T05:47:57.512Z,100760.59
2022-09-23T05:50:25.301Z,100760.59
2022-09-23T05:52:53.090Z,100766.06
2022-09-23T05:55:20.807Z,100760.59
2022-09-23T05:57:48.510Z,100761.28
2022-09-23T06:00:16.681Z,100763.16
2022-09-23T06:02:44.550Z,100761.44
2022-09-23T06:05:12.357Z,100757.88
2022-09-23T06:07:40.071Z,100766.91
2022-09-23T06:10:07.860Z,100768.63
2022-09-23T06:12:36.022Z,100769.63
2022-09-23T06:15:03.733Z,100769.81
2022-09-23T06:17:31.451Z,100769.63
2022-09-23T06:19:59.309Z,100771.50
2022-09-23T06:22:27.023Z,100766.91
2022-09-23T06:24:54.745Z,100774.06
2022-09-23T06:27:22.428Z,100770.50
2022-09-23T06:29:52.541Z,100766.91
2022-09-23T06:32:20.757Z,100765.22
2022-09-23T06:34:51.852Z,100768.97
2022-09-23T06:37:20.829Z,100765.22
2022-09-23T06:39:49.504Z,100759.75
2022-09-23T06:42:17.209Z,100771.50
2022-09-23T06:44:45.011Z,100765.22
2022-09-23T06:47:12.885Z,100769.81
2022-09-23T06:49:40.624Z,100771.50
2022-09-23T06:52:08.570Z,100772.34
2022-09-23T06:54:37.902Z,100777.78
2022-09-23T06:57:05.623Z,100775.94
2022-09-23T06:59:33.419Z,100776.94
2022-09-23T07:02:01.243Z,100775.06
2022-09-23T07:04:29.517Z,100770.66
2022-09-23T07:06:57.512Z,100773.22
2022-09-23T07:09:25.996Z,100771.50
2022-09-23T07:11:53.717Z,100771.50
2022-09-23T07:14:21.493Z,100762.31
2022-09-23T07:16:49.231Z,100767.78
2022-09-23T07:19:17.216Z,100766.91
2022-09-23T07:21:44.928Z,100769.63
2022-09-23T07:24:12.643Z,100771.50
2022-09-23T07:26:45.470Z,100771.34
2022-09-23T07:29:13.504Z,100772.34
2022-09-23T07:31:41.281Z,100775.06
2022-09-23T07:34:10.031Z,100783.22
2022-09-23T07:36:40.723Z,100780.50
2022-09-23T07:39:08.756Z,100778.66
2022-09-23T07:41:37.279Z,100784.09
2022-09-23T07:44:06.332Z,100777.78
2022-09-23T07:46:34.185Z,100777.78
2022-09-23T07:49:02.174Z,100778.66
2022-09-23T07:51:35.403Z,100783.22
2022-09-23T07:54:05.437Z,100776.09
2022-09-23T07:56:33.392Z,100777.78
2022-09-23T07:59:01.871Z,100766.91
2022-09-23T08:01:29.863Z,100775.06
2022-09-23T08:03:57.879Z,100776.09
2022-09-23T08:06:25.805Z,100775.06
2022-09-23T08:08:53.777Z,100773.22
2022-09-23T08:11:21.598Z,100778.66
2022-09-23T08:13:49.277Z,100774.41
2022-09-23T08:16:17.007Z,100774.22
2022-09-23T08:18:44.745Z,100776.09
2022-09-23T08:21:12.465Z,100778.81
2022-09-23T08:23:40.154Z,100776.94
2022-09-23T08:26:13.898Z,100771.50
2022-09-23T08:28:46.011Z,100775.41
2022-09-23T08:31:14.332Z,100769.81
2022-09-23T08:33:42.195Z,100772.34
2022-09-23T08:36:09.928Z,100766.91
2022-09-23T08:38:37.688Z,100759.75
2022-09-23T08:41:08.025Z,100757.88
2022-09-23T08:43:35.753Z,100766.91
2022-09-23T08:46:03.661Z,100753.28
2022-09-23T08:48:31.427Z,100759.00
2022-09-23T08:50:59.429Z,100752.72
2022-09-23T08:53:29.327Z,100746.44
2022-09-23T08:55:57.495Z,100750.28
2022-09-23T08:58:26.236Z,100748.72
2022-09-23T09:00:54.160Z,100744.25
2022-09-23T09:03:21.876Z,100739.84
2022-09-23T09:05:54.226Z,100739.19
2022-09-23T09:08:24.194Z,100746.03
2022-09-23T09:10:52.986Z,100736.69
2022-09-23T09:13:20.693Z,100740.81
2022-09-23T09:15:48.411Z,100736.75
2022-09-23T09:18:16.406Z,100736.06
2022-09-23T09:20:44.241Z,100734.75
2022-09-23T09:23:12.008Z,100728.81
2022-09-23T09:25:39.775Z,100731.03
2022-09-23T09:28:07.445Z,100727.81
2022-09-23T09:30:36.250Z,100728.19
2022-09-23T09:33:04.138Z,100726.84
2022-09-23T09:35:33.339Z,100731.59
2022-09-23T09:38:01.909Z,100720.03
2022-09-23T09:40:29.775Z,100721.25
2022-09-23T09:42:57.767Z,100711.56
2022-09-23T09:45:26.343Z,100713.63
2022-09-23T09:47:54.115Z,100711.06
2022-09-23T09:50:22.273Z,100709.38
2022-09-23T09:52:51.980Z,100705.97
2022-09-23T09:55:19.812Z,100705.28
2022-09-23T09:57:47.958Z,100704.47
2022-09-23T10:00:18.159Z,100698.34
2022-09-23T10:02:45.919Z,100694.94
2022-09-23T10:05:13.580Z,100696.66
2022-09-23T10:07:41.276Z,100689.47
2022-09-23T10:10:22.246Z,100687.75
2022-09-23T10:12:57.979Z,100688.97
2022-09-23T10:15:25.836Z,100695.09
2022-09-23T10:17:54.366Z,100679.75
2022-09-23T10:20:22.170Z,100686.41
2022-09-23T10:22:49.905Z,100680.13
2022-09-23T10:25:18.111Z,100684.72
2022-09-23T10:27:45.956Z,100682.34
2022-09-23T10:30:13.593Z,100685.09
2022-09-23T10:32:41.737Z,100682.34
2022-09-23T10:35:10.676Z,100689.69
2022-09-23T10:37:38.390Z,100683.38
2022-09-23T10:40:23.546Z,100681.69
2022-09-23T10:43:05.167Z,100676.41
2022-09-23T10:45:50.438Z,100673.88
2022-09-23T10:48:18.862Z,100677.63
2022-09-23T10:50:46.986Z,100676.59
2022-09-23T10:53:14.661Z,100661.09
2022-09-23T10:55:42.343Z,100659.22
2022-09-23T10:58:10.395Z,100652.75
2022-09-23T11:00:38.121Z,100660.06
2022-09-23T11:03:09.531Z,100651.88
2022-09-23T11:05:37.226Z,100642.88
2022-09-23T11:08:04.905Z,100641.00
2022-09-23T11:10:48.158Z,100643.91
2022-09-23T11:13:15.954Z,100643.06
2022-09-23T11:15:44.137Z,100634.69
2022-09-23T11:18:11.828Z,100631.81
2022-09-23T11:20:39.628Z,100638.94
2022-09-23T11:23:08.182Z,100636.41
2022-09-23T11:25:36.273Z,100624.84
2022-09-23T11:28:04.223Z,100622.97
2022-09-23T11:30:31.961Z,100627.56
2022-09-23T11:35:36.870Z,100616.00
2022-09-23T11:38:04.581Z,100611.59
2022-09-23T11:40:32.450Z,100615.16
2022-09-23T11:43:00.198Z,100605.09
2022-09-23T11:45:27.888Z,100608.03
2022-09-23T11:47:55.627Z,100617.03
2022-09-23T11:50:26.017Z,100609.03
2022-09-23T11:52:53.973Z,100598.13
2022-09-23T11:55:23.214Z,100598.97
2022-09-23T11:57:51.427Z,100601.69
2022-09-23T12:00:19.158Z,100589.78
2022-09-23T12:03:00.543Z,100597.78
2022-09-23T12:05:32.252Z,100582.63
2022-09-23T12:08:01.174Z,100580.59
2022-09-23T12:10:28.916Z,100583.97
2022-09-23T12:12:56.683Z,100578.53
2022-09-23T12:15:24.366Z,100574.28
2022-09-23T12:17:52.186Z,100572.25
2022-09-23T12:20:19.851Z,100574.97
2022-09-23T12:22:47.531Z,100566.97
2022-09-23T12:25:15.201Z,100571.56
2022-09-23T12:27:44.843Z,100569.69
2022-09-23T12:30:12.571Z,100567.63
2022-09-23T12:32:41.343Z,100564.25
2022-09-23T12:35:09.030Z,100557.78
2022-09-23T12:37:36.747Z,100561.16
2022-09-23T12:40:04.892Z,100561.34
2022-09-23T12:42:32.682Z,100547.72
2022-09-23T12:45:01.123Z,100550.25
2022-09-23T12:47:29.573Z,100550.25
2022-09-23T12:49:58.218Z,100542.09
2022-09-23T12:52:29.423Z,100539.56
2022-09-23T12:54:57.337Z,100540.41
2022-09-23T12:57:25.010Z,100540.41
2022-09-23T12:59:52.711Z,100540.56
2022-09-23T13:02:20.505Z,100534.28
2022-09-23T13:05:05.709Z,100535.31
2022-09-23T13:07:34.241Z,100531.75
2022-09-23T13:10:02.071Z,100528.66
2022-09-23T13:12:29.868Z,100522.19
2022-09-23T13:14:58.150Z,100523.22
2022-09-23T13:17:25.895Z,100520.66
2022-09-23T13:19:53.617Z,100520.66
2022-09-23T13:22:21.311Z,100516.25
2022-09-23T13:24:49.054Z,100515.22
2022-09-23T13:27:16.788Z,100508.09
2022-09-23T13:29:44.984Z,100499.25
2022-09-23T13:32:12.734Z,100489.38
2022-09-23T13:34:40.513Z,100493.13
2022-09-23T13:37:08.198Z,100488.72
2022-09-23T13:39:35.879Z,100478.66
2022-09-23T13:42:04.263Z,100484.09
2022-09-23T13:44:31.916Z,100465.88
2022-09-23T13:46:59.650Z,100468.44
2022-09-23T13:49:28.455Z,100469.97
2022-09-23T13:51:56.201Z,100464.50
2022-09-23T13:54:24.614Z,100468.25
2022-09-23T13:56:52.357Z,100461.09
2022-09-23T13:59:20.049Z,100462.78
2022-09-23T14:01:48.018Z,100463.84
2022-09-23T14:04:15.738Z,100456.19
2022-09-23T14:06:44.062Z,100456.28
2022-09-23T14:09:11.733Z,100451.53
2022-09-23T14:11:39.437Z,100456.28
2022-09-23T14:14:07.912Z,100454.31
2022-09-23T14:16:35.856Z,100457.72
2022-09-23T14:19:03.678Z,100453.09
2022-09-23T14:21:31.725Z,100449.41
2022-09-23T14:23:59.669Z,100439.13
2022-09-23T14:26:27.585Z,100439.94
2022-09-23T14:28:55.360Z,100432.56
2022-09-23T14:31:23.119Z,100429.88
2022-09-23T14:33:50.983Z,100430.03
2022-09-23T14:36:36.469Z,100422.13
2022-09-23T14:39:04.286Z,100416.91
2022-09-23T14:41:32.022Z,100422.94
2022-09-23T14:43:59.744Z,100413.03
2022-09-23T14:46:27.554Z,100417.91
2022-09-23T14:48:55.266Z,100411.75
2022-09-23T14:51:23.139Z,100413.03
2022-09-23T14:53:50.844Z,100407.91
2022-09-23T14:56:18.586Z,100406.38
2022-09-23T14:58:51.663Z,100406.44
2022-09-23T15:01:20.518Z,100403.59
2022-09-23T15:03:48.484Z,100397.06
2022-09-23T15:06:16.728Z,100395.22
2022-09-23T15:08:44.449Z,100395.75
2022-09-23T15:11:12.154Z,100401.72
2022-09-23T15:13:39.881Z,100397.91
2022-09-23T15:16:07.754Z,100397.47
2022-09-23T15:18:35.485Z,100385.81
2022-09-23T15:21:03.252Z,100391.16
2022-09-23T15:23:30.964Z,100387.47
2022-09-23T15:25:59.123Z,100387.28
2022-09-23T15:28:27.385Z,100387.31
2022-09-23T15:30:55.274Z,100384.88
2022-09-23T15:33:28.131Z,100376.06
2022-09-23T15:35:55.947Z,100383.09
2022-09-23T15:38:23.675Z,100379.34
2022-09-23T15:40:51.755Z,100378.50
2022-09-23T15:43:21.535Z,100377.66
2022-09-23T15:45:52.841Z,100378.72
2022-09-23T15:48:22.773Z,100376.59
2022-09-23T15:50:50.614Z,100369.31
2022-09-23T15:53:18.786Z,100367.94
2022-09-23T15:55:46.667Z,100369.72
2022-09-23T15:58:14.400Z,100361.72
2022-09-23T16:00:42.179Z,100364.56
2022-09-23T16:03:10.094Z,100371.75
2022-09-23T16:05:37.822Z,100370.13
2022-09-23T16:08:08.928Z,100366.72
2022-09-23T16:10:37.060Z,100367.38
2022-09-23T16:13:05.306Z,100368.00
2022-09-23T16:15:33.023Z,100366.31
2022-09-23T16:18:00.815Z,100362.06
2022-09-23T16:20:29.734Z,100363.19
2022-09-23T16:22:57.439Z,100362.44
2022-09-23T16:25:25.443Z,100359.47
2022-09-23T16:27:55.376Z,100360.63
2022-09-23T16:30:23.514Z,100354.75
2022-09-23T16:32:51.899Z,100358.19
2022-09-23T16:35:19.954Z,100353.91
2022-09-23T16:37:47.828Z,100358.09
2022-09-23T16:40:16.510Z,100354.81
2022-09-23T16:42:46.531Z,100362.72
2022-09-23T16:45:15.664Z,100354.44
2022-09-23T16:47:44.403Z,100360.66
2022-09-23T16:50:12.441Z,100350.19
2022-09-23T16:52:40.670Z,100355.00
2022-09-23T16:55:08.916Z,100358.19
2022-09-23T16:57:37.094Z,100348.78
2022-09-23T17:00:22.296Z,100350.44
2022-09-23T17:03:07.492Z,100348.25
2022-09-23T17:05:35.182Z,100351.28
2022-09-23T17:08:04.134Z,100352.19
2022-09-23T17:10:33.039Z,100351.97
2022-09-23T17:13:00.700Z,100351.59
2022-09-23T17:15:28.388Z,100343.22
2022-09-23T17:17:56.159Z,100357.44
2022-09-23T17:20:23.933Z,100354.28
2022-09-23T17:22:51.631Z,100347.75
2022-09-23T17:25:19.547Z,100350.72
2022-09-23T17:27:47.355Z,100353.44
2022-09-23T17:30:15.217Z,100353.44
2022-09-23T17:32:42.921Z,100345.84
2022-09-23T17:37:54.253Z,100350.72
2022-09-23T17:40:22.052Z,100349.22
2022-09-23T17:42:50.312Z,100337.63
2022-09-23T17:45:18.013Z,100342.09
2022-09-23T17:47:51.300Z,100338.06
2022-09-23T17:50:19.772Z,100338.91
2022-09-23T17:52:47.499Z,100344.41
2022-09-23T17:55:16.728Z,100332.59
2022-09-23T17:57:44.749Z,100347.56
2022-09-23T18:00:12.436Z,100339.38
2022-09-23T18:02:40.280Z,100346.06
2022-09-23T18:05:07.984Z,100348.22
2022-09-23T18:07:35.760Z,100343.38
2022-09-23T18:10:03.483Z,100341.06
2022-09-23T18:12:31.191Z,100335.09
2022-09-23T18:14:58.888Z,100340.25
2022-09-23T18:17:26.592Z,100342.91
2022-09-23T18:19:54.314Z,100346.09
2022-09-23T18:22:22.239Z,100337.88
2022-09-23T18:24:50.040Z,100335.19
2022-09-23T18:27:17.916Z,100335.38
2022-09-23T18:29:45.786Z,100330.63
2022-09-23T18:32:14.387Z,100327.00
2022-09-23T18:34:42.307Z,100340.16
2022-09-23T18:37:15.701Z,100335.66
2022-09-23T18:39:44.676Z,100335.28
2022-09-23T18:42:13.687Z,100333.34
2022-09-23T18:44:41.391Z,100328.66
2022-09-23T18:47:29.091Z,100331.50
2022-09-23T18:50:14.280Z,100329.28
2022-09-23T18:52:41.986Z,100327.72
2022-09-23T18:55:10.681Z,100329.16
2022-09-23T18:57:39.055Z,100333.16
2022-09-23T19:00:07.295Z,100336.63
2022-09-23T19:02:35.146Z,100333.94
2022-09-23T19:05:03.121Z,100340.13
2022-09-23T19:07:30.817Z,100336.56
2022-09-23T19:09:58.523Z,100336.56
2022-09-23T19:12:26.197Z,100327.09
2022-09-23T19:14:53.904Z,100328.59
2022-09-23T19:17:21.891Z,100338.06
2022-09-23T19:19:50.073Z,100339.13
2022-09-23T19:22:19.499Z,100336.16
2022-09-23T19:24:47.185Z,100335.66
2022-09-23T19:27:14.956Z,100325.34
2022-09-23T19:29:42.636Z,100332.03
2022-09-23T19:32:10.610Z,100329.72
2022-09-23T19:34:38.712Z,100329.50
2022-09-23T19:37:06.412Z,100331.13
2022-09-23T19:39:35.120Z,100334.03
2022-09-23T19:42:03.420Z,100331.13
2022-09-23T19:44:31.118Z,100305.66
2022-09-23T19:46:58.891Z,100313.03
2022-09-23T19:49:26.643Z,100315.53
2022-09-23T19:51:55.852Z,100321.84
2022-09-23T19:54:26.173Z,100323.88
2022-09-23T19:56:53.888Z,100325.75
2022-09-23T19:59:21.540Z,100322.97
2022-09-23T20:01:49.276Z,100319.56
2022-09-23T20:04:17.124Z,100318.50
2022-09-23T20:06:46.130Z,100316.53
2022-09-23T20:09:13.881Z,100320.28
2022-09-23T20:11:42.972Z,100320.66
2022-09-23T20:14:10.820Z,100311.75
2022-09-23T20:16:38.723Z,100315.72
2022-09-23T20:19:06.611Z,100313.38
2022-09-23T20:21:35.341Z,100309.53
2022-09-23T20:24:04.420Z,100311.81
2022-09-23T20:26:49.926Z,100315.94
2022-09-23T20:29:17.685Z,100308.56
2022-09-23T20:31:45.868Z,100299.94
2022-09-23T20:34:13.793Z,100300.53
2022-09-23T20:36:42.595Z,100295.66
2022-09-23T20:39:10.332Z,100296.88
2022-09-23T20:41:39.105Z,100296.22
2022-09-23T20:44:07.820Z,100295.97
2022-09-23T20:46:35.909Z,100296.59
2022-09-23T20:49:03.783Z,100287.31
2022-09-23T20:51:33.211Z,100293.13
2022-09-23T20:54:01.252Z,100294.38
2022-09-23T20:56:29.248Z,100280.09
2022-09-23T20:58:57.022Z,100282.16
2022-09-23T21:01:24.780Z,100281.69
2022-09-23T21:03:52.604Z,100278.34
2022-09-23T21:06:20.546Z,100278.72
2022-09-23T21:08:48.512Z,100270.91
2022-09-23T21:11:16.330Z,100275.72
2022-09-23T21:13:45.639Z,100261.63
2022-09-23T21:16:14.342Z,100269.38
2022-09-23T21:18:43.484Z,100272.28
2022-09-23T21:21:11.257Z,100271.84
2022-09-23T21:23:39.209Z,100269.28
2022-09-23T21:26:07.138Z,100271.34
2022-09-23T21:28:35.013Z,100272.25
2022-09-23T21:31:02.777Z,100266.78
2022-09-23T21:33:31.273Z,100269.66
2022-09-23T21:36:03.654Z,100270.06
2022-09-23T21:38:31.329Z,100271.28
2022-09-23T21:40:59.183Z,100266.00
2022-09-23T21:43:27.587Z,100269.97
2022-09-23T21:45:55.431Z,100273.75
2022-09-23T21:48:24.316Z,100269.69
2022-09-23T21:50:52.485Z,100272.44
2022-09-23T21:53:20.547Z,100262.75
2022-09-23T21:55:48.859Z,100268.41
2022-09-23T21:58:16.516Z,100266.72
2022-09-23T22:00:44.459Z,100265.22
2022-09-23T22:03:12.204Z,100265.88
2022-09-23T22:05:44.029Z,100265.22
2022-09-23T22:08:11.726Z,100260.97
2022-09-23T22:10:39.428Z,100264.75
2022-09-23T22:13:12.697Z,100263.94
2022-09-23T22:15:40.701Z,100264.09
2022-09-23T22:18:08.676Z,100265.16
2022-09-23T22:20:36.732Z,100256.97
2022-09-23T22:23:04.445Z,100264.31
2022-09-23T22:25:33.267Z,100261.59
2022-09-23T22:28:18.418Z,100262.59
2022-09-23T22:31:03.758Z,100258.38
2022-09-23T22:33:31.907Z,100256.69
2022-09-23T22:36:01.375Z,100259.59
2022-09-23T22:38:29.740Z,100249.53
2022-09-23T22:40:57.728Z,100256.03
2022-09-23T22:43:25.434Z,100248.72
2022-09-23T22:45:53.207Z,100251.66
2022-09-23T22:48:21.133Z,100250.41
2022-09-23T22:50:48.849Z,100247.69
2022-09-23T22:53:16.957Z,100242.41
2022-09-23T22:55:44.658Z,100244.09
2022-09-23T22:58:31.127Z,100245.81
2022-09-23T23:01:00.077Z,100257.28
2022-09-23T23:03:27.868Z,100244.47
2022-09-23T23:05:57.489Z,100248.91
2022-09-23T23:08:27.207Z,100244.47
2022-09-23T23:10:54.983Z,100247.41
2022-09-23T23:13:22.825Z,100246.59
2022-09-23T23:15:50.587Z,100243.63
2022-09-23T23:18:18.385Z,100242.81
2022-09-23T23:20:46.245Z,100239.25
2022-09-23T23:23:14.025Z,100242.97
2022-09-23T23:25:41.884Z,100238.59
2022-09-23T23:28:09.561Z,100235.19
2022-09-23T23:30:37.322Z,100227.22
2022-09-23T23:33:05.048Z,100217.34
2022-09-23T23:35:34.763Z,100221.78
2022-09-23T23:38:02.490Z,100220.72
2022-09-23T23:40:30.223Z,100224.50
2022-09-23T23:43:00.100Z,100218.84
2022-09-23T23:45:28.249Z,100225.13
2022-09-23T23:47:56.022Z,100218.00
2022-09-23T23:50:23.853Z,100220.06
2022-09-23T23:52:51.531Z,100218.41
2022-09-23T23:55:19.226Z,100220.47
2022-09-23T23:57:46.987Z,100211.22
